createdAt,value
2022-10-24T00:01:47.975Z,99567.22
2022-10-24T00:04:16.870Z,99566.97
2022-10-24T00:06:45.242Z,99563.97
2022-10-24T00:09:13.616Z,99565.28
2022-10-24T00:11:44.088Z,99571.44
2022-10-24T00:14:12.444Z,99574.25
2022-10-24T00:16:40.802Z,99571.50
2022-10-24T00:19:09.123Z,99572.81
2022-10-24T00:21:37.567Z,99574.38
2022-10-24T00:24:06.419Z,99576.00
2022-10-24T00:26:36.063Z,99571.22
2022-10-24T00:29:05.221Z,99572.78
2022-10-24T00:31:34.171Z,99574.34
2022-10-24T00:34:02.544Z,99578.75
2022-10-24T00:36:31.259Z,99590.25
2022-10-24T00:38:59.652Z,99584.44
2022-10-24T00:41:32.396Z,99583.69
2022-10-24T00:44:34.550Z,99599.31
2022-10-24T00:50:03.701Z,99605.28
2022-10-24T00:52:37.559Z,99605.84
2022-10-24T00:55:08.087Z,99600.53
2022-10-24T00:57:46.807Z,99611.25
2022-10-24T01:00:19.937Z,99617.16
2022-10-24T01:02:49.092Z,99618.19
2022-10-24T01:05:20.273Z,99613.34
2022-10-24T01:08:20.640Z,99610.81
2022-10-24T01:10:57.661Z,99619.28
2022-10-24T01:13:37.948Z,99623.13
2022-10-24T01:16:08.981Z,99630.28
2022-10-24T01:19:01.282Z,99627.50
2022-10-24T01:21:36.155Z,99628.03
2022-10-24T01:24:13.611Z,99628.28
2022-10-24T01:27:19.659Z,99628.28
2022-10-24T01:30:06.051Z,99633.13
2022-10-24T01:32:59.833Z,99635.94
2022-10-24T01:35:44.317Z,99632.91
2022-10-24T01:38:38.982Z,99631.38
2022-10-24T01:41:14.799Z,99630.34
2022-10-24T01:44:30.399Z,99636.00
2022-10-24T01:47:12.985Z,99642.88
2022-10-24T01:49:46.429Z,99643.41
2022-10-24T01:52:17.923Z,99644.16
2022-10-24T01:54:49.020Z,99652.56
2022-10-24T01:57:17.466Z,99644.91
2022-10-24T01:59:49.968Z,99649.22
2022-10-24T02:02:59.083Z,99643.13
2022-10-24T02:05:43.832Z,99646.69
2022-10-24T02:08:19.917Z,99644.63
2022-10-24T02:11:00.496Z,99648.16
2022-10-24T02:14:00.934Z,99652.03
2022-10-24T02:16:29.406Z,99649.47
2022-10-24T02:18:59.780Z,99648.66
2022-10-24T02:21:43.546Z,99642.50
2022-10-24T02:24:23.015Z,99638.94
2022-10-24T02:27:11.038Z,99629.94
2022-10-24T02:30:16.993Z,99633.50
2022-10-24T02:32:50.406Z,99635.53
2022-10-24T02:35:23.182Z,99635.47
2022-10-24T02:37:55.517Z,99636.25
2022-10-24T02:40:25.381Z,99631.88
2022-10-24T02:42:57.588Z,99635.44
2022-10-24T02:45:27.822Z,99639.75
2022-10-24T02:48:04.385Z,99631.53
2022-10-24T02:50:34.130Z,99629.69
2022-10-24T02:53:02.574Z,99624.50
2022-10-24T02:55:30.959Z,99621.16
2022-10-24T02:57:59.302Z,99633.13
2022-10-24T03:00:27.884Z,99634.59
2022-10-24T03:02:56.220Z,99628.91
2022-10-24T03:05:24.653Z,99636.56
2022-10-24T03:07:53.071Z,99634.50
2022-10-24T03:10:22.013Z,99636.50
2022-10-24T03:12:50.445Z,99625.19
2022-10-24T03:15:18.921Z,99622.31
2022-10-24T03:17:50.088Z,99623.78
2022-10-24T03:20:18.595Z,99624.28
2022-10-24T03:22:46.941Z,99621.41
2022-10-24T03:25:15.304Z,99616.72
2022-10-24T03:27:44.014Z,99609.47
2022-10-24T03:30:13.324Z,99608.88
2022-10-24T03:32:45.182Z,99613.22
2022-10-24T03:35:14.375Z,99609.56
2022-10-24T03:37:43.344Z,99612.84
2022-10-24T03:40:13.059Z,99615.59
2022-10-24T03:42:41.476Z,99612.72
2022-10-24T03:45:10.912Z,99607.78
2022-10-24T03:47:39.606Z,99599.25
2022-10-24T03:50:08.730Z,99594.84
2022-10-24T03:52:37.054Z,99595.75
2022-10-24T03:55:05.929Z,99588.75
2022-10-24T03:57:34.249Z,99591.53
2022-10-24T04:00:02.696Z,99588.41
2022-10-24T04:02:31.014Z,99584.72
2022-10-24T04:04:59.365Z,99587.25
2022-10-24T04:07:27.727Z,99581.28
2022-10-24T04:09:56.582Z,99584.59
2022-10-24T04:12:26.235Z,99578.09
2022-10-24T04:14:54.689Z,99571.38
2022-10-24T04:17:23.162Z,99565.63
2022-10-24T04:19:51.577Z,99564.03
2022-10-24T04:24:49.244Z,99548.22
2022-10-24T04:27:17.559Z,99543.03
2022-10-24T04:29:46.354Z,99538.56
2022-10-24T04:32:14.736Z,99534.91
2022-10-24T04:34:43.224Z,99533.28
2022-10-24T04:37:11.540Z,99528.84
2022-10-24T04:39:39.981Z,99528.00
2022-10-24T04:42:08.294Z,99521.28
2022-10-24T04:44:36.648Z,99526.81
2022-10-24T04:47:05.021Z,99520.84
2022-10-24T04:49:33.467Z,99516.16
2022-10-24T04:52:01.781Z,99508.34
2022-10-24T04:54:30.123Z,99509.56
2022-10-24T04:56:58.497Z,99507.16
2022-10-24T04:59:26.853Z,99501.41
2022-10-24T05:01:58.270Z,99497.69
2022-10-24T05:04:26.760Z,99485.88
2022-10-24T05:06:55.101Z,99483.47
2022-10-24T05:09:23.507Z,99471.84
2022-10-24T05:11:55.078Z,99472.06
2022-10-24T05:14:23.673Z,99467.63
2022-10-24T05:16:52.085Z,99460.13
2022-10-24T05:19:20.887Z,99459.22
2022-10-24T05:21:49.253Z,99453.78
2022-10-24T05:24:17.738Z,99447.59
2022-10-24T05:26:46.063Z,99438.75
2022-10-24T05:29:14.406Z,99436.69
2022-10-24T05:31:42.711Z,99438.41
2022-10-24T05:34:11.136Z,99433.72
2022-10-24T05:36:39.608Z,99428.84
2022-10-24T05:39:08.205Z,99429.84
2022-10-24T05:41:36.577Z,99427.22
2022-10-24T05:44:05.130Z,99414.03
2022-10-24T05:46:33.597Z,99417.09
2022-10-24T05:49:01.930Z,99409.56
2022-10-24T05:51:30.312Z,99405.44
2022-10-24T05:53:59.645Z,99396.41
2022-10-24T05:56:28.011Z,99387.34
2022-10-24T05:58:58.411Z,99386.25
2022-10-24T06:01:27.138Z,99384.94
2022-10-24T06:03:55.504Z,99386.47
2022-10-24T06:06:24.896Z,99375.38
2022-10-24T06:08:53.878Z,99372.00
2022-10-24T06:13:50.217Z,99368.06
2022-10-24T06:16:18.772Z,99365.44
2022-10-24T06:18:47.183Z,99362.63
2022-10-24T06:21:16.907Z,99356.44
2022-10-24T06:23:45.212Z,99353.81
2022-10-24T06:26:17.435Z,99348.91
2022-10-24T06:28:47.818Z,99353.25
2022-10-24T06:31:16.251Z,99336.28
2022-10-24T06:33:44.557Z,99339.09
2022-10-24T06:36:13.558Z,99328.00
2022-10-24T06:38:41.987Z,99328.00
2022-10-24T06:41:12.605Z,99317.44
2022-10-24T06:43:43.389Z,99320.28
2022-10-24T06:46:14.692Z,99311.78
2022-10-24T06:48:45.894Z,99307.44
2022-10-24T06:51:17.385Z,99305.16
2022-10-24T06:53:45.791Z,99292.34
2022-10-24T06:56:15.625Z,99286.69
2022-10-24T06:58:43.938Z,99291.03
2022-10-24T07:01:15.896Z,99278.94
2022-10-24T07:03:45.447Z,99271.97
2022-10-24T07:06:20.474Z,99271.97
2022-10-24T07:08:49.058Z,99266.31
2022-10-24T07:11:17.412Z,99262.53
2022-10-24T07:13:46.085Z,99259.72
2022-10-24T07:16:14.528Z,99253.28
2022-10-24T07:18:44.022Z,99250.47
2022-10-24T07:21:16.806Z,99244.59
2022-10-24T07:23:45.198Z,99237.41
2022-10-24T07:26:16.533Z,99247.97
2022-10-24T07:28:47.707Z,99235.69
2022-10-24T07:31:19.366Z,99236.44
2022-10-24T07:33:47.803Z,99240.59
2022-10-24T07:36:23.608Z,99233.41
2022-10-24T07:38:57.552Z,99233.22
2022-10-24T07:41:27.776Z,99228.09
2022-10-24T07:43:56.288Z,99229.41
2022-10-24T07:46:25.969Z,99217.91
2022-10-24T07:48:54.896Z,99214.88
2022-10-24T07:51:24.038Z,99220.31
2022-10-24T07:53:52.494Z,99214.47
2022-10-24T07:56:20.889Z,99219.38
2022-10-24T07:58:49.581Z,99213.50
2022-10-24T08:01:20.912Z,99213.31
2022-10-24T08:03:50.017Z,99218.00
2022-10-24T08:06:23.039Z,99214.97
2022-10-24T08:08:51.773Z,99211.16
2022-10-24T08:11:25.337Z,99216.06
2022-10-24T08:13:55.868Z,99221.72
2022-10-24T08:16:26.450Z,99224.34
2022-10-24T08:18:57.874Z,99218.47
2022-10-24T08:21:26.803Z,99216.00
2022-10-24T08:23:56.440Z,99215.25
2022-10-24T08:26:27.040Z,99211.47
2022-10-24T08:28:56.508Z,99212.56
2022-10-24T08:31:27.338Z,99211.59
2022-10-24T08:33:57.214Z,99216.31
2022-10-24T08:36:34.233Z,99214.59
2022-10-24T08:39:03.809Z,99209.25
2022-10-24T08:41:42.294Z,99213.94
2022-10-24T08:44:48.271Z,99210.72
2022-10-24T08:50:14.445Z,99208.75
2022-10-24T08:52:47.899Z,99201.94
2022-10-24T08:55:49.337Z,99209.44
2022-10-24T08:58:45.293Z,99204.16
2022-10-24T09:01:31.245Z,99208.59
2022-10-24T09:04:05.052Z,99198.94
2022-10-24T09:06:34.803Z,99205.69
2022-10-24T09:09:07.132Z,99210.19
2022-10-24T09:11:56.699Z,99205.44
2022-10-24T09:14:30.257Z,99206.53
2022-10-24T09:17:39.093Z,99208.19
2022-10-24T09:20:22.608Z,99199.25
2022-10-24T09:22:51.152Z,99208.06
2022-10-24T09:25:24.905Z,99201.25
2022-10-24T09:27:53.540Z,99213.66
2022-10-24T09:30:29.939Z,99212.66
2022-10-24T09:33:25.255Z,99207.13
2022-10-24T09:35:57.222Z,99211.03
2022-10-24T09:38:28.895Z,99201.38
2022-10-24T09:40:59.414Z,99216.56
2022-10-24T09:43:57.005Z,99209.00
2022-10-24T09:46:40.590Z,99212.91
2022-10-24T09:49:26.343Z,99214.56
2022-10-24T09:52:09.732Z,99214.88
2022-10-24T09:54:38.295Z,99213.16
2022-10-24T09:57:12.857Z,99215.53
2022-10-24T09:59:46.149Z,99213.03
2022-10-24T10:02:30.517Z,99217.50
2022-10-24T10:05:20.585Z,99223.25
2022-10-24T10:07:51.429Z,99214.88
2022-10-24T10:10:19.728Z,99224.97
2022-10-24T10:12:57.241Z,99225.81
2022-10-24T10:16:02.291Z,99233.63
2022-10-24T10:18:35.267Z,99230.91
2022-10-24T10:21:20.055Z,99225.94
2022-10-24T10:23:57.293Z,99231.41
2022-10-24T10:26:25.662Z,99237.69
2022-10-24T10:28:58.280Z,99238.88
2022-10-24T10:31:51.229Z,99237.97
2022-10-24T10:34:52.823Z,99242.72
2022-10-24T10:37:26.859Z,99236.41
2022-10-24T10:40:44.491Z,99247.31
2022-10-24T10:43:15.542Z,99245.88
2022-10-24T10:45:51.028Z,99250.84
2022-10-24T10:48:37.096Z,99251.47
2022-10-24T10:51:37.534Z,99256.94
2022-10-24T10:54:42.439Z,99254.50
2022-10-24T10:57:26.488Z,99252.28
2022-10-24T11:00:12.032Z,99254.94
2022-10-24T11:02:43.356Z,99265.53
2022-10-24T11:05:30.497Z,99262.00
2022-10-24T11:08:19.319Z,99263.38
2022-10-24T11:11:00.888Z,99272.66
2022-10-24T11:13:35.989Z,99274.00
2022-10-24T11:16:11.679Z,99279.69
2022-10-24T11:18:44.014Z,99289.25
2022-10-24T11:21:14.836Z,99286.22
2022-10-24T11:23:51.794Z,99293.97
2022-10-24T11:26:23.797Z,99295.56
2022-10-24T11:29:06.704Z,99299.94
2022-10-24T11:31:47.822Z,99305.84
2022-10-24T11:34:38.862Z,99308.19
2022-10-24T11:37:13.453Z,99310.53
2022-10-24T11:39:53.882Z,99318.50
2022-10-24T11:42:36.162Z,99322.13
2022-10-24T11:45:27.562Z,99329.06
2022-10-24T11:48:12.116Z,99329.88
2022-10-24T11:50:55.604Z,99336.28
2022-10-24T11:53:26.576Z,99340.91
2022-10-24T11:56:12.982Z,99341.97
2022-10-24T11:59:08.562Z,99337.38
2022-10-24T12:01:48.280Z,99343.50
2022-10-24T12:04:34.343Z,99355.03
2022-10-24T12:07:05.637Z,99349.91
2022-10-24T12:09:58.687Z,99350.94
2022-10-24T12:12:48.741Z,99347.13
2022-10-24T12:15:44.661Z,99358.13
2022-10-24T12:18:22.507Z,99357.88
2022-10-24T12:20:56.855Z,99363.50
2022-10-24T12:23:32.411Z,99363.25
2022-10-24T12:26:16.788Z,99359.69
2022-10-24T12:28:54.566Z,99367.13
2022-10-24T12:31:29.157Z,99369.69
2022-10-24T12:34:19.990Z,99369.97
2022-10-24T12:37:13.121Z,99378.16
2022-10-24T12:39:47.908Z,99380.97
2022-10-24T12:42:25.540Z,99384.28
2022-10-24T12:45:13.917Z,99388.38
2022-10-24T12:47:42.672Z,99394.00
2022-10-24T12:50:23.240Z,99400.09
2022-10-24T12:52:57.657Z,99403.44
2022-10-24T12:55:39.667Z,99408.03
2022-10-24T12:58:26.280Z,99412.63
2022-10-24T13:00:59.737Z,99412.41
2022-10-24T13:03:45.457Z,99421.34
2022-10-24T13:06:13.750Z,99428.75
2022-10-24T13:09:03.183Z,99434.63
2022-10-24T13:12:28.318Z,99441.53
2022-10-24T13:15:05.470Z,99446.91
2022-10-24T13:18:09.257Z,99453.03
2022-10-24T13:20:51.223Z,99454.84
2022-10-24T13:23:30.490Z,99451.03
2022-10-24T13:26:00.702Z,99454.81
2022-10-24T13:28:31.466Z,99465.81
2022-10-24T13:30:59.709Z,99464.78
2022-10-24T13:33:37.479Z,99470.13
2022-10-24T13:36:17.147Z,99468.34
2022-10-24T13:38:59.454Z,99458.16
2022-10-24T13:42:09.200Z,99458.44
2022-10-24T13:45:02.012Z,99468.13
2022-10-24T13:47:34.795Z,99467.38
2022-10-24T13:50:29.461Z,99467.13
2022-10-24T13:53:30.719Z,99472.72
2022-10-24T13:56:06.529Z,99473.75
2022-10-24T13:58:44.607Z,99465.09
2022-10-24T14:01:37.273Z,99477.31
2022-10-24T14:04:05.765Z,99470.16
2022-10-24T14:06:35.536Z,99474.78
2022-10-24T14:09:11.527Z,99474.00
2022-10-24T14:11:49.092Z,99477.56
2022-10-24T14:14:40.957Z,99485.22
2022-10-24T14:17:22.979Z,99478.84
2022-10-24T14:20:00.534Z,99483.69
2022-10-24T14:22:36.483Z,99475.28
2022-10-24T14:25:05.102Z,99477.31
2022-10-24T14:27:35.721Z,99469.41
2022-10-24T14:30:06.504Z,99478.59
2022-10-24T14:32:34.840Z,99476.31
2022-10-24T14:35:03.685Z,99476.06
2022-10-24T14:37:38.748Z,99480.13
2022-10-24T14:40:13.133Z,99479.88
2022-10-24T14:42:41.627Z,99488.06
2022-10-24T14:45:27.764Z,99489.06
2022-10-24T14:47:57.576Z,99485.25
2022-10-24T14:50:48.149Z,99489.09
2022-10-24T14:53:27.007Z,99491.13
2022-10-24T14:55:58.599Z,99494.41
2022-10-24T14:58:32.782Z,99500.03
2022-10-24T15:01:01.898Z,99508.19
2022-10-24T15:03:31.788Z,99503.84
2022-10-24T15:06:13.384Z,99502.31
2022-10-24T15:08:46.828Z,99509.19
2022-10-24T15:11:26.044Z,99506.91
2022-10-24T15:14:06.379Z,99511.00
2022-10-24T15:16:39.715Z,99512.25
2022-10-24T15:19:15.937Z,99517.09
2022-10-24T15:21:47.281Z,99517.09
2022-10-24T15:24:28.064Z,99517.09
2022-10-24T15:27:12.353Z,99528.31
2022-10-24T15:29:41.764Z,99533.16
2022-10-24T15:32:12.328Z,99531.63
2022-10-24T15:34:40.972Z,99539.03
2022-10-24T15:37:22.449Z,99537.50
2022-10-24T15:39:51.911Z,99535.19
2022-10-24T15:42:22.411Z,99541.31
2022-10-24T15:44:51.249Z,99537.00
2022-10-24T15:47:19.602Z,99532.66
2022-10-24T15:49:47.916Z,99533.41
2022-10-24T15:52:17.918Z,99533.13
2022-10-24T15:54:46.314Z,99530.34
2022-10-24T15:57:16.867Z,99529.56
2022-10-24T15:59:45.150Z,99532.88
2022-10-24T16:02:25.492Z,99528.53
2022-10-24T16:04:53.872Z,99527.78
2022-10-24T16:07:22.247Z,99538.72
2022-10-24T16:09:50.661Z,99538.72
2022-10-24T16:12:19.007Z,99532.34
2022-10-24T16:14:47.379Z,99533.91
2022-10-24T16:17:15.692Z,99541.03
2022-10-24T16:19:44.057Z,99548.41
2022-10-24T16:22:12.783Z,99543.56
2022-10-24T16:24:41.235Z,99546.34
2022-10-24T16:27:09.598Z,99545.59
2022-10-24T16:29:37.924Z,99536.41
2022-10-24T16:32:06.408Z,99535.66
2022-10-24T16:34:34.820Z,99540.50
2022-10-24T16:37:03.119Z,99532.84
2022-10-24T16:39:31.424Z,99542.53
2022-10-24T16:42:00.593Z,99534.88
2022-10-24T16:44:29.438Z,99538.44
2022-10-24T16:46:57.762Z,99532.84
2022-10-24T16:49:26.185Z,99537.94
2022-10-24T16:51:54.509Z,99530.31
2022-10-24T16:54:23.732Z,99529.81
2022-10-24T16:56:54.054Z,99535.44
2022-10-24T16:59:22.528Z,99536.19
2022-10-24T17:01:51.459Z,99551.75
2022-10-24T17:04:19.887Z,99543.31
2022-10-24T17:06:48.286Z,99537.22
2022-10-24T17:09:16.686Z,99532.38
2022-10-24T17:11:46.291Z,99538.75
2022-10-24T17:14:15.146Z,99542.34
2022-10-24T17:16:45.145Z,99551.50
2022-10-24T17:19:17.432Z,99547.16
2022-10-24T17:21:48.491Z,99557.13
2022-10-24T17:24:18.834Z,99557.88
2022-10-24T17:26:47.427Z,99571.13
2022-10-24T17:29:24.507Z,99568.34
2022-10-24T17:31:53.400Z,99567.56
2022-10-24T17:34:22.274Z,99567.56
2022-10-24T17:37:19.975Z,99564.25
2022-10-24T17:39:52.215Z,99566.28
2022-10-24T17:42:22.149Z,99568.06
2022-10-24T17:44:51.103Z,99575.69
2022-10-24T17:47:19.546Z,99567.03
2022-10-24T17:49:47.953Z,99559.59
2022-10-24T17:52:22.983Z,99567.00
2022-10-24T17:54:54.130Z,99562.66
2022-10-24T17:57:22.418Z,99554.00
2022-10-24T17:59:50.714Z,99559.34
2022-10-24T18:02:19.109Z,99553.47
2022-10-24T18:04:47.520Z,99558.06
2022-10-24T18:07:16.015Z,99547.88
2022-10-24T18:09:44.309Z,99547.59
2022-10-24T18:12:12.712Z,99544.56
2022-10-24T18:14:41.022Z,99542.25
2022-10-24T18:17:09.299Z,99539.19
2022-10-24T18:19:37.584Z,99534.88
2022-10-24T18:22:06.069Z,99533.81
2022-10-24T18:24:34.412Z,99530.25
2022-10-24T18:27:02.727Z,99533.03
2022-10-24T18:29:31.072Z,99527.19
2022-10-24T18:31:59.435Z,99534.06
2022-10-24T18:34:27.799Z,99530.22
2022-10-24T18:36:56.283Z,99522.34
2022-10-24T18:39:27.665Z,99529.22
2022-10-24T18:42:03.578Z,99530.22
2022-10-24T18:44:36.363Z,99536.06
2022-10-24T18:47:08.782Z,99523.09
2022-10-24T18:49:37.424Z,99517.72
2022-10-24T18:52:12.473Z,99520.78
2022-10-24T18:54:54.091Z,99518.19
2022-10-24T18:57:26.272Z,99518.44
2022-10-24T18:59:56.278Z,99520.22
2022-10-24T19:02:58.134Z,99515.59
2022-10-24T19:05:49.105Z,99509.72
2022-10-24T19:08:25.676Z,99501.84
2022-10-24T19:10:56.825Z,99500.81
2022-10-24T19:13:27.056Z,99499.28
2022-10-24T19:16:01.132Z,99490.63
2022-10-24T19:18:32.716Z,99490.34
2022-10-24T19:21:02.008Z,99492.91
2022-10-24T19:23:30.314Z,99484.22
2022-10-24T19:25:59.606Z,99483.19
2022-10-24T19:28:27.930Z,99478.59
2022-10-24T19:30:56.304Z,99480.38
2022-10-24T19:33:28.727Z,99481.38
2022-10-24T19:35:57.062Z,99470.69
2022-10-24T19:38:25.493Z,99472.44
2022-10-24T19:40:56.047Z,99457.69
2022-10-24T19:43:26.772Z,99460.22
2022-10-24T19:48:45.286Z,99452.59
2022-10-24T19:51:14.651Z,99443.16
2022-10-24T19:53:45.007Z,99444.94
2022-10-24T19:56:15.197Z,99445.41
2022-10-24T19:58:44.139Z,99449.47
2022-10-24T20:01:17.514Z,99449.97
2022-10-24T20:03:47.995Z,99452.50
2022-10-24T20:06:19.169Z,99462.16
2022-10-24T20:08:48.641Z,99467.00
2022-10-24T20:11:18.084Z,99465.47
2022-10-24T20:13:46.461Z,99467.50
2022-10-24T20:16:15.421Z,99466.75
2022-10-24T20:18:44.617Z,99468.00
2022-10-24T20:21:15.698Z,99458.59
2022-10-24T20:23:44.003Z,99458.59
2022-10-24T20:26:15.866Z,99461.13
2022-10-24T20:28:48.066Z,99450.69
2022-10-24T20:31:37.800Z,99444.34
2022-10-24T20:34:10.621Z,99452.72
2022-10-24T20:36:40.874Z,99454.00
2022-10-24T20:39:10.123Z,99440.50
2022-10-24T20:41:39.591Z,99448.91
2022-10-24T20:44:08.056Z,99448.63
2022-10-24T20:46:37.680Z,99443.28
2022-10-24T20:49:06.442Z,99452.19
2022-10-24T20:51:35.056Z,99443.53
2022-10-24T20:54:03.420Z,99442.00
2022-10-24T20:56:31.807Z,99441.16
2022-10-24T20:59:00.119Z,99445.22
2022-10-24T21:01:30.357Z,99444.47
2022-10-24T21:03:59.725Z,99444.47
2022-10-24T21:06:30.967Z,99442.44
2022-10-24T21:11:36.482Z,99440.41
2022-10-24T21:14:11.888Z,99443.19
2022-10-24T21:16:40.435Z,99443.19
2022-10-24T21:19:08.770Z,99442.44
2022-10-24T21:21:37.105Z,99444.47
2022-10-24T21:24:06.885Z,99440.91
2022-10-24T21:26:39.052Z,99439.38
2022-10-24T21:29:27.886Z,99440.91
2022-10-24T21:31:56.705Z,99440.91
2022-10-24T21:34:26.704Z,99436.84
2022-10-24T21:36:57.144Z,99439.63
2022-10-24T21:39:25.511Z,99445.22
2022-10-24T21:41:53.803Z,99441.16
2022-10-24T21:44:24.224Z,99441.16
2022-10-24T21:46:55.199Z,99451.59
2022-10-24T21:49:23.731Z,99448.03
2022-10-24T21:51:52.035Z,99444.47
2022-10-24T21:54:22.922Z,99446.50
2022-10-24T21:56:51.281Z,99446.50
2022-10-24T21:59:21.437Z,99453.34
2022-10-24T22:01:52.099Z,99454.13
2022-10-24T22:04:21.172Z,99452.59
2022-10-24T22:06:49.966Z,99453.09
2022-10-24T22:09:21.570Z,99457.91
2022-10-24T22:11:49.943Z,99460.44
2022-10-24T22:14:19.704Z,99466.03
2022-10-24T22:16:48.593Z,99461.72
2022-10-24T22:19:17.662Z,99462.22
2022-10-24T22:21:48.861Z,99467.81
2022-10-24T22:24:22.667Z,99464.25
2022-10-24T22:26:51.950Z,99466.78
2022-10-24T22:29:23.633Z,99469.84
2022-10-24T22:31:53.487Z,99474.16
2022-10-24T22:34:25.406Z,99475.44
2022-10-24T22:37:16.643Z,99473.41
2022-10-24T22:39:45.284Z,99484.59
2022-10-24T22:42:19.132Z,99485.09
2022-10-24T22:44:49.318Z,99490.69
2022-10-24T22:47:37.876Z,99496.78
2022-10-24T22:50:40.699Z,99502.09
2022-10-24T22:53:17.300Z,99502.59
2022-10-24T22:56:00.256Z,99501.06
2022-10-24T22:58:28.821Z,99499.53
2022-10-24T23:01:02.061Z,99520.38
2022-10-24T23:03:33.463Z,99522.41
2022-10-24T23:06:26.894Z,99529.25
2022-10-24T23:08:55.278Z,99536.38
2022-10-24T23:11:23.864Z,99530.03
2022-10-24T23:13:53.206Z,99531.28
2022-10-24T23:16:34.546Z,99530.53
2022-10-24T23:19:05.392Z,99531.28
2022-10-24T23:21:45.473Z,99529.00
2022-10-24T23:24:18.649Z,99526.47
2022-10-24T23:26:58.083Z,99537.38
2022-10-24T23:29:33.484Z,99529.25
2022-10-24T23:32:03.129Z,99530.78
2022-10-24T23:34:32.212Z,99534.63
2022-10-24T23:37:06.163Z,99539.72
2022-10-24T23:39:36.456Z,99539.22
2022-10-24T23:42:05.842Z,99538.72
2022-10-24T23:44:34.505Z,99548.16
2022-10-24T23:47:47.218Z,99545.63
2022-10-24T23:50:36.767Z,99549.44
2022-10-24T23:53:32.557Z,99544.13
2022-10-24T23:56:01.147Z,99541.59
2022-10-24T23:58:29.508Z,99540.66
